Pontal, Brazil
Current Conditions -  °F | °C
As of 6:00 AM on Saturday 25 Oct 2014 (Local Time) from SBRP Reporting Station
Light Rain Light Rain  
Wind Chill: 66°   Ceiling: 1000
Heat Index: 66°   Visibility: 2.5mi
Dew Point: 64°   Wind: 5mph
Humidity: 94%   Direction: 90°E
Pressure: 29.97"   Gusts: NA
Location:  21.02°S, 48.04°W
Report Text: SBRP 250800Z 09004KT 4000 -RA SCT004 BKN010 OVC070 19/18 Q1015
Loading
Personal Weather Stations






























Interactive Weather Map
Tropical Storm Tracking
New forecast layout! Learn more

10-Day Weather Forecast

Advertisements
Track Severe Weather on mobile